Cape Horn, California
Current Conditions -  °F | °C
As of 1:40 AM on Tuesday 21 Oct 2014 (Local Time) from KGOO Reporting Station
Overcast Overcast  
Wind Chill: 44°   Ceiling: 100
Heat Index: 46°   Visibility: 0.5mi
Dew Point: 46°   Wind: 6mph
Humidity: 100%   Direction: 150°SSE
Pressure: 30.08"   Gusts: NA
Location:  39.0937°N, 120.92°W
Report Text: KGOO 210840Z AUTO 15005KT 1/2SM OVC001 08/08 A3008 RMK AO1
Loading
Personal Weather Stations






























Interactive Weather Map
Tropical Storm Tracking
New forecast layout! Learn more

10-Day Weather Forecast

Advertisements
Track Severe Weather on mobile